SBSP Airport Information

Runway Information
Runway 17L Length 4708 ft width 148 ft
Elevation 0 ft Threshold 0 ft Heading 0
Runway 35R Length 4708 ft Width 148 ft
Elevation 0 ft Threshold 0 ft Heading 0
Runway 17R Length 6365 ft width 148 ft
Elevation 0 ft Threshold 0 ft Heading 0
Runway 35L Length 6365 ft Width 148 ft
Elevation 0 ft Threshold 0 ft Heading 0
Airport Frequencies
Type APP Name SAO PAULO Frequency 119.8 MHZ
Type ATIS Name ATIS Frequency 127.65 MHZ
Type CLD Name CLNC DEL Frequency 120.6 MHZ
Type GND Name GND Frequency 121.9 MHZ
Type TWR Name SAO PAULO Frequency 127.15 MHZ
Airport Navaids
Type VOR-DME Name Congonhas Frequency 116900 KHZ
Type NDB Name Diadema Frequency 200 KHZ
Type NDB Name Mada Frequency 290 KHZ
Type NDB Name Metro Frequency 330 KHZ
Type NDB Name Sao Paulo Frequency 250 KHZ
Airport Weather Information & NOTAM
ADDS - METARS form results

(0643 UTC 22 April 2018)
 
METAR text: SBSP 220600Z AUTO 10003KT 070V130 //// R17/P2000N // NCD 17/14 Q1019
Conditions at: SBSP (SAO PAULO/CONGON, BR) observed 0600 UTC 22 April 2018
Temperature: 17.0°C (63°F)
Dewpoint: 14.0°C (57°F) [RH = 82%]
Pressure (altimeter): 30.09 inches Hg (1019.0 mb)
Winds: from the E (100 degrees) at 3 MPH (3 knots; 1.6 m/s)
Visibility: 1.24 miles (2.00 km)
Ceiling: at least 12,000 feet AGL
Clouds: sky clear below 12,000 feet AGL
Weather: no significant weather observed at this time